Time;durP1;ratioP1;P1;durP2;ratioP2;P2;SDS_P1;SDS_P2;PMS_P1;PMS_P2;Temp;Humidity;BMP_temperature;BMP_pressure;BME280_temperature;BME280_humidity;BME280_pressure;Samples;Min_cycle;Max_cycle;Signal;HPM_P1;HPM_P2
2023/01/25 00:02:05;;;;;;;15.50;8.98;;;;;;;;;;5044201;28;20051;-72
2023/01/25 00:04:31;;;;;;;7.90;5.95;;;;;;;;;;5061642;28;20060;-73
2023/01/25 00:06:57;;;;;;;11.77;8.40;;;;;;;;;;5044436;28;20028;-71
2023/01/25 00:09:23;;;;;;;11.07;8.80;;;;;;;;;;5062021;28;20041;-73
2023/01/25 00:11:49;;;;;;;16.60;9.50;;;;;;;;;;5060972;28;20028;-70
2023/01/25 00:14:15;;;;;;;11.32;8.27;;;;;;;;;;5062669;28;20541;-71
2023/01/25 00:16:41;;;;;;;11.90;9.75;;;;;;;;;;5044332;28;20060;-72
2023/01/25 00:19:07;;;;;;;9.93;6.60;;;;;;;;;;5062107;28;20074;-71
2023/01/25 00:21:33;;;;;;;14.38;8.63;;;;;;;;;;5029081;28;20032;-72
2023/01/25 00:23:59;;;;;;;12.23;8.27;;;;;;;;;;5064261;28;20098;-71
2023/01/25 00:26:26;;;;;;;10.02;8.82;;;;;;;;;;5061874;28;20037;-72
2023/01/25 00:28:52;;;;;;;11.77;7.80;;;;;;;;;;5047297;28;20054;-72
2023/01/25 00:31:25;;;;;;;12.23;9.15;;;;;;;;;;5038592;28;20032;-71
2023/01/25 00:33:55;;;;;;;12.13;8.27;;;;;;;;;;5040969;28;20119;-71
2023/01/25 00:36:32;;;;;;;13.20;8.85;;;;;;;;;;5041570;28;20045;-72
2023/01/25 00:38:58;;;;;;;8.82;7.47;;;;;;;;;;5044160;28;20032;-72
2023/01/25 00:41:24;;;;;;;15.82;10.02;;;;;;;;;;5040110;28;20045;-71
2023/01/25 00:43:50;;;;;;;11.00;9.55;;;;;;;;;;5049401;28;20049;-71
2023/01/25 00:46:16;;;;;;;7.25;6.05;;;;;;;;;;5014614;28;20499;-71
2023/01/25 00:48:42;;;;;;;9.85;7.57;;;;;;;;;;5035130;28;20097;-72
2023/01/25 00:51:08;;;;;;;10.30;6.35;;;;;;;;;;5051326;28;20036;-71
2023/01/25 00:53:34;;;;;;;9.55;8.48;;;;;;;;;;5034801;28;20738;-72
2023/01/25 00:56:00;;;;;;;11.32;8.02;;;;;;;;;;5051098;28;20040;-72
2023/01/25 00:58:27;;;;;;;9.18;8.27;;;;;;;;;;5051391;28;20166;-72
2023/01/25 01:00:53;;;;;;;9.98;7.88;;;;;;;;;;5050875;28;20040;-72
2023/01/25 01:03:19;;;;;;;12.13;8.23;;;;;;;;;;5046624;28;20052;-71
2023/01/25 01:05:45;;;;;;;10.00;9.00;;;;;;;;;;5048701;28;20040;-71
2023/01/25 01:08:12;;;;;;;8.23;7.35;;;;;;;;;;5049091;28;20040;-72
2023/01/25 01:10:38;;;;;;;13.45;8.38;;;;;;;;;;5031204;28;20510;-72
2023/01/25 01:13:04;;;;;;;9.82;7.75;;;;;;;;;;5031154;28;20048;-71
2023/01/25 01:15:30;;;;;;;11.27;7.93;;;;;;;;;;5030772;28;20072;-71
2023/01/25 01:17:56;;;;;;;8.70;7.40;;;;;;;;;;5048722;28;20033;-71
2023/01/25 01:20:22;;;;;;;11.85;8.25;;;;;;;;;;5033153;28;20044;-72
2023/01/25 01:22:53;;;;;;;16.98;11.38;;;;;;;;;;5034223;28;20098;-73
2023/01/25 01:25:19;;;;;;;25.85;17.27;;;;;;;;;;5068706;28;20040;-72
2023/01/25 01:27:46;;;;;;;22.92;12.85;;;;;;;;;;5050365;28;20032;-72
2023/01/25 01:30:12;;;;;;;22.38;14.48;;;;;;;;;;5068618;28;20041;-72
2023/01/25 01:32:38;;;;;;;16.17;10.88;;;;;;;;;;5050634;28;20064;-72
2023/01/25 01:35:04;;;;;;;10.35;8.85;;;;;;;;;;5067981;28;20113;-72
2023/01/25 01:37:31;;;;;;;10.23;7.30;;;;;;;;;;5033944;28;20043;-72
2023/01/25 01:39:56;;;;;;;10.63;7.63;;;;;;;;;;5033885;28;20040;-72
2023/01/25 01:42:22;;;;;;;8.30;7.38;;;;;;;;;;5033832;28;20040;-72
2023/01/25 01:44:50;;;;;;;11.70;6.90;;;;;;;;;;5056460;28;20148;-72
2023/01/25 01:47:19;;;;;;;7.00;6.30;;;;;;;;;;5030829;28;20072;-73
2023/01/25 01:49:48;;;;;;;6.45;5.68;;;;;;;;;;5030171;28;20158;-71
2023/01/25 01:52:15;;;;;;;4.00;3.70;;;;;;;;;;5020032;28;20035;-72
2023/01/25 01:54:49;;;;;;;8.15;6.03;;;;;;;;;;5017063;28;20044;-73
2023/01/25 01:57:22;;;;;;;5.60;5.10;;;;;;;;;;5017339;28;20087;-71
2023/01/25 01:59:59;;;;;;;14.55;10.15;;;;;;;;;;5049962;28;20040;-72
2023/01/25 02:02:25;;;;;;;8.00;7.22;;;;;;;;;;5017283;28;20037;-72
2023/01/25 02:04:52;;;;;;;13.90;9.18;;;;;;;;;;5049936;28;20044;-72
2023/01/25 02:07:22;;;;;;;18.35;10.35;;;;;;;;;;5033544;28;20439;-71
2023/01/25 02:09:51;;;;;;;12.75;8.40;;;;;;;;;;5033523;28;20498;-71
2023/01/25 02:12:17;;;;;;;17.10;9.77;;;;;;;;;;5050279;28;20064;-72
2023/01/25 02:14:44;;;;;;;12.43;10.10;;;;;;;;;;5067844;28;20472;-71
2023/01/25 02:17:11;;;;;;;13.38;10.13;;;;;;;;;;5068260;28;20461;-72
2023/01/25 02:19:37;;;;;;;14.45;9.73;;;;;;;;;;5046506;28;20128;-73
2023/01/25 02:22:06;;;;;;;12.93;9.40;;;;;;;;;;5013778;28;20407;-71
2023/01/25 02:24:32;;;;;;;14.25;9.93;;;;;;;;;;5014009;28;20045;-71
2023/01/25 02:26:58;;;;;;;16.33;10.23;;;;;;;;;;5013451;28;20521;-72
2023/01/25 02:29:25;;;;;;;15.50;10.05;;;;;;;;;;5030046;28;20131;-71
2023/01/25 02:31:59;;;;;;;12.00;8.00;;;;;;;;;;5013269;28;20036;-72
2023/01/25 02:34:26;;;;;;;6.88;6.15;;;;;;;;;;5013456;28;20033;-71
2023/01/25 02:36:53;;;;;;;12.57;9.25;;;;;;;;;;5029933;28;20542;-71
2023/01/25 02:39:19;;;;;;;17.90;10.60;;;;;;;;;;5030119;28;20033;-72
2023/01/25 02:41:46;;;;;;;15.00;10.40;;;;;;;;;;5029717;28;20100;-71
2023/01/25 02:44:20;;;;;;;12.65;9.38;;;;;;;;;;5029887;28;20053;-71
2023/01/25 02:46:47;;;;;;;12.75;10.10;;;;;;;;;;5016178;28;20036;-72
2023/01/25 02:49:13;;;;;;;14.25;8.77;;;;;;;;;;5033839;28;20455;-69
2023/01/25 02:51:41;;;;;;;17.00;11.20;;;;;;;;;;5034549;28;20041;-71
2023/01/25 02:54:07;;;;;;;16.98;10.82;;;;;;;;;;5053446;28;20040;-71
2023/01/25 02:56:34;;;;;;;13.55;10.13;;;;;;;;;;5053484;28;20033;-71
2023/01/25 02:59:04;;;;;;;16.15;7.05;;;;;;;;;;5053232;28;20062;-72
2023/01/25 03:01:35;;;;;;;17.20;11.45;;;;;;;;;;5051990;28;20127;-71
2023/01/25 03:04:02;;;;;;;16.75;11.38;;;;;;;;;;5017603;28;20057;-73
2023/01/25 03:06:28;;;;;;;14.90;8.50;;;;;;;;;;5030030;28;20040;-71
2023/01/25 03:08:55;;;;;;;25.85;13.27;;;;;;;;;;5029861;28;20045;-72
2023/01/25 03:11:21;;;;;;;16.25;9.93;;;;;;;;;;5028181;28;20038;-73
2023/01/25 03:13:47;;;;;;;22.42;11.82;;;;;;;;;;5029727;28;20036;-71
2023/01/25 03:16:14;;;;;;;21.00;11.77;;;;;;;;;;5031106;28;20041;-72
2023/01/25 03:18:42;;;;;;;21.85;12.30;;;;;;;;;;5031269;28;20046;-71
2023/01/25 03:21:09;;;;;;;18.50;11.85;;;;;;;;;;5028776;28;20037;-72
2023/01/25 03:23:35;;;;;;;17.30;12.93;;;;;;;;;;5046308;28;20045;-71
2023/01/25 03:26:05;;;;;;;23.80;13.27;;;;;;;;;;5029541;28;20048;-71
2023/01/25 03:28:32;;;;;;;21.52;12.07;;;;;;;;;;5029050;28;20579;-71
2023/01/25 03:30:58;;;;;;;23.20;12.75;;;;;;;;;;5024443;28;20083;-71
2023/01/25 03:33:24;;;;;;;12.82;9.50;;;;;;;;;;5007941;28;20095;-71
2023/01/25 03:35:51;;;;;;;20.42;11.52;;;;;;;;;;5023269;28;20449;-72
2023/01/25 03:38:19;;;;;;;21.23;11.30;;;;;;;;;;5030812;28;20048;-73
2023/01/25 03:40:46;;;;;;;19.92;12.18;;;;;;;;;;5039032;28;20400;-73
2023/01/25 03:43:12;;;;;;;16.02;10.57;;;;;;;;;;5029107;28;20744;-72
2023/01/25 03:45:38;;;;;;;19.00;11.38;;;;;;;;;;5029361;28;20049;-71
2023/01/25 03:48:05;;;;;;;18.75;10.23;;;;;;;;;;5029159;28;20033;-70
2023/01/25 03:50:31;;;;;;;15.48;11.20;;;;;;;;;;5029057;28;20445;-70
2023/01/25 03:53:05;;;;;;;20.02;12.05;;;;;;;;;;5029108;28;20044;-69
2023/01/25 03:55:32;;;;;;;29.90;11.73;;;;;;;;;;5030507;28;20032;-70
2023/01/25 03:57:58;;;;;;;14.75;10.45;;;;;;;;;;5010329;28;20179;-70
2023/01/25 04:00:25;;;;;;;20.50;10.68;;;;;;;;;;5019312;28;20053;-69
2023/01/25 04:02:57;;;;;;;14.65;10.55;;;;;;;;;;4992449;28;20405;-70
2023/01/25 04:05:25;;;;;;;17.23;11.30;;;;;;;;;;5009223;28;20181;-69
2023/01/25 04:07:51;;;;;;;27.35;15.80;;;;;;;;;;5011198;28;20488;-72
2023/01/25 04:10:26;;;;;;;14.77;10.02;;;;;;;;;;5026635;28;20045;-71
2023/01/25 04:12:53;;;;;;;18.27;11.85;;;;;;;;;;5010235;28;20041;-70
2023/01/25 04:15:19;;;;;;;40.05;14.60;;;;;;;;;;5023178;28;20037;-69
2023/01/25 04:17:46;;;;;;;21.95;13.32;;;;;;;;;;5020291;28;20038;-72
2023/01/25 04:20:18;;;;;;;24.60;11.20;;;;;;;;;;5027056;28;20388;-71
2023/01/25 04:22:44;;;;;;;24.83;12.52;;;;;;;;;;5026409;28;20844;-71
2023/01/25 04:25:10;;;;;;;21.45;12.57;;;;;;;;;;5026172;28;20553;-70
2023/01/25 04:27:42;;;;;;;13.40;8.27;;;;;;;;;;5020752;28;20484;-69
2023/01/25 04:30:12;;;;;;;19.98;12.05;;;;;;;;;;5024888;28;20527;-69
2023/01/25 04:32:39;;;;;;;23.20;11.93;;;;;;;;;;5025612;28;20048;-69
2023/01/25 04:35:16;;;;;;;16.88;9.32;;;;;;;;;;5026121;28;20037;-70
2023/01/25 04:37:42;;;;;;;15.32;9.20;;;;;;;;;;5025876;28;20169;-71
2023/01/25 04:40:09;;;;;;;19.52;12.23;;;;;;;;;;5026074;28;20044;-70
2023/01/25 04:42:40;;;;;;;14.77;8.45;;;;;;;;;;5021529;28;20182;-69
2023/01/25 04:45:06;;;;;;;24.30;13.40;;;;;;;;;;5004996;28;20073;-70
2023/01/25 04:47:33;;;;;;;17.27;8.32;;;;;;;;;;5024620;28;20042;-70
2023/01/25 04:50:00;;;;;;;24.42;13.80;;;;;;;;;;5024892;28;20643;-70
2023/01/25 04:52:28;;;;;;;17.73;12.02;;;;;;;;;;5034739;28;20174;-70
2023/01/25 04:54:55;;;;;;;18.85;12.63;;;;;;;;;;5026259;28;20033;-70
2023/01/25 04:57:21;;;;;;;23.90;14.35;;;;;;;;;;5024708;28;20037;-70
2023/01/25 04:59:51;;;;;;;20.23;12.55;;;;;;;;;;5024167;28;20413;-69
2023/01/25 05:02:17;;;;;;;22.65;13.90;;;;;;;;;;5009351;28;20056;-71
2023/01/25 05:04:44;;;;;;;30.85;15.98;;;;;;;;;;5047174;28;20041;-70
2023/01/25 05:07:10;;;;;;;24.50;13.48;;;;;;;;;;5030723;28;20041;-70
2023/01/25 05:09:36;;;;;;;31.20;14.02;;;;;;;;;;5047413;28;20028;-70
2023/01/25 05:12:02;;;;;;;23.98;12.55;;;;;;;;;;5047493;28;20086;-70
2023/01/25 05:14:39;;;;;;;19.02;12.05;;;;;;;;;;5045523;28;20391;-70
2023/01/25 05:17:06;;;;;;;23.40;11.55;;;;;;;;;;5032382;28;20036;-70
2023/01/25 05:19:32;;;;;;;23.88;12.75;;;;;;;;;;5029209;28;20036;-71
2023/01/25 05:22:06;;;;;;;29.58;14.82;;;;;;;;;;5045269;28;21248;-71
2023/01/25 05:24:45;;;;;;;21.52;13.00;;;;;;;;;;5063460;28;20094;-70
2023/01/25 05:27:14;;;;;;;20.77;12.02;;;;;;;;;;5047649;28;20028;-70
2023/01/25 05:30:03;;;;;;;14.25;10.55;;;;;;;;;;5048680;28;20028;-70
2023/01/25 05:32:41;;;;;;;32.10;16.55;;;;;;;;;;5048598;28;20036;-70
2023/01/25 05:35:07;;;;;;;24.10;13.57;;;;;;;;;;5048538;28;20032;-70
2023/01/25 05:37:33;;;;;;;18.45;12.07;;;;;;;;;;5065080;28;20040;-70
2023/01/25 05:40:03;;;;;;;19.58;12.65;;;;;;;;;;5048261;28;20427;-70
2023/01/25 05:42:34;;;;;;;22.27;11.57;;;;;;;;;;5048950;28;20047;-70
2023/01/25 05:45:04;;;;;;;21.67;12.00;;;;;;;;;;5048717;28;20139;-70
2023/01/25 05:47:32;;;;;;;18.35;11.70;;;;;;;;;;5032398;28;20036;-71
2023/01/25 05:49:58;;;;;;;20.27;12.60;;;;;;;;;;5066692;28;20410;-71
2023/01/25 05:52:37;;;;;;;21.08;11.85;;;;;;;;;;5048393;28;20028;-72
2023/01/25 05:55:03;;;;;;;15.45;12.27;;;;;;;;;;5066575;28;20386;-71
2023/01/25 05:57:29;;;;;;;15.20;10.95;;;;;;;;;;5066491;28;20144;-71
2023/01/25 05:59:57;;;;;;;12.52;8.55;;;;;;;;;;5048516;28;20567;-70
2023/01/25 06:02:24;;;;;;;42.78;15.02;;;;;;;;;;5048232;28;20621;-71
2023/01/25 06:04:50;;;;;;;19.08;10.55;;;;;;;;;;5066952;28;20079;-70
2023/01/25 06:07:17;;;;;;;28.08;13.75;;;;;;;;;;5031873;28;20036;-71
2023/01/25 06:09:43;;;;;;;16.50;11.18;;;;;;;;;;5044439;28;20121;-72
2023/01/25 06:12:09;;;;;;;20.33;10.50;;;;;;;;;;5047128;28;20104;-71
2023/01/25 06:14:35;;;;;;;17.88;12.73;;;;;;;;;;5032228;28;20036;-70
2023/01/25 06:17:02;;;;;;;14.65;10.00;;;;;;;;;;5049222;28;20086;-71
2023/01/25 06:19:30;;;;;;;13.65;10.27;;;;;;;;;;5068818;28;20505;-70
2023/01/25 06:22:35;;;;;;;17.70;12.90;;;;;;;;;;5063608;28;20069;-71
2023/01/25 06:25:01;;;;;;;17.38;9.55;;;;;;;;;;5070989;28;20041;-71
2023/01/25 06:27:27;;;;;;;16.67;10.93;;;;;;;;;;5070420;28;20674;-72
2023/01/25 06:29:53;;;;;;;15.05;11.10;;;;;;;;;;5052817;28;20124;-70
2023/01/25 06:32:19;;;;;;;12.15;9.75;;;;;;;;;;5068563;28;20465;-70
2023/01/25 06:34:45;;;;;;;7.32;6.43;;;;;;;;;;5068114;28;20043;-70
2023/01/25 06:37:19;;;;;;;11.75;10.45;;;;;;;;;;5036567;28;20506;-70
2023/01/25 06:39:45;;;;;;;6.70;6.00;;;;;;;;;;5070278;28;20044;-70
2023/01/25 06:42:11;;;;;;;11.88;8.45;;;;;;;;;;5069903;28;20064;-69
2023/01/25 06:44:37;;;;;;;10.00;8.90;;;;;;;;;;5069896;28;20055;-70
2023/01/25 06:47:03;;;;;;;10.02;8.02;;;;;;;;;;5051661;28;20024;-70
2023/01/25 06:49:29;;;;;;;13.73;8.77;;;;;;;;;;5069662;28;20040;-69
2023/01/25 06:51:55;;;;;;;9.98;8.85;;;;;;;;;;5069589;28;20025;-71
2023/01/25 06:54:21;;;;;;;7.28;6.57;;;;;;;;;;5069693;28;20520;-70
2023/01/25 06:56:47;;;;;;;12.52;9.55;;;;;;;;;;5051767;28;20029;-71
2023/01/25 06:59:14;;;;;;;10.38;8.18;;;;;;;;;;5051490;28;20032;-72
2023/01/25 07:01:40;;;;;;;14.40;9.43;;;;;;;;;;5049829;28;20036;-71
2023/01/25 07:04:07;;;;;;;12.35;10.45;;;;;;;;;;5069218;28;20048;-74
2023/01/25 07:06:33;;;;;;;9.57;8.32;;;;;;;;;;5052050;28;20123;-74
2023/01/25 07:09:06;;;;;;;11.55;10.35;;;;;;;;;;5069373;28;20160;-71
2023/01/25 07:11:33;;;;;;;11.43;8.57;;;;;;;;;;5069962;28;20040;-72
2023/01/25 07:13:59;;;;;;;10.55;8.15;;;;;;;;;;5049813;28;21528;-71
2023/01/25 07:16:26;;;;;;;5.93;5.15;;;;;;;;;;5069221;28;20028;-72
2023/01/25 07:18:52;;;;;;;10.00;8.40;;;;;;;;;;5069620;28;20066;-71
2023/01/25 07:21:20;;;;;;;8.73;6.78;;;;;;;;;;5051129;28;20530;-71
2023/01/25 07:23:46;;;;;;;14.05;9.02;;;;;;;;;;5051378;28;20028;-72
2023/01/25 07:26:19;;;;;;;11.85;9.73;;;;;;;;;;5069060;28;20036;-71
2023/01/25 07:28:45;;;;;;;9.55;8.55;;;;;;;;;;5043255;28;20028;-71
2023/01/25 07:31:12;;;;;;;11.23;8.60;;;;;;;;;;5068264;28;20033;-71
2023/01/25 07:33:38;;;;;;;7.10;6.50;;;;;;;;;;5051368;28;20032;-72
2023/01/25 07:36:04;;;;;;;7.65;6.35;;;;;;;;;;5050731;28;20552;-72
2023/01/25 07:38:30;;;;;;;4.80;4.40;;;;;;;;;;5051127;28;20033;-72
2023/01/25 07:40:56;;;;;;;12.93;8.43;;;;;;;;;;5051002;28;20518;-72
2023/01/25 07:43:23;;;;;;;10.65;8.30;;;;;;;;;;5069291;28;20464;-72
2023/01/25 07:45:51;;;;;;;9.93;8.68;;;;;;;;;;5050208;28;20044;-72
2023/01/25 07:48:17;;;;;;;7.82;7.07;;;;;;;;;;5068974;28;20444;-70
2023/01/25 07:50:48;;;;;;;11.50;8.27;;;;;;;;;;5050768;28;20509;-71
2023/01/25 07:53:15;;;;;;;5.65;5.22;;;;;;;;;;5065543;28;20024;-70
2023/01/25 07:55:41;;;;;;;6.90;6.30;;;;;;;;;;5068903;28;20036;-69
2023/01/25 07:58:07;;;;;;;7.25;6.65;;;;;;;;;;5068649;28;20036;-70
2023/01/25 08:00:33;;;;;;;8.43;7.68;;;;;;;;;;5051005;28;20047;-71
2023/01/25 08:02:59;;;;;;;13.90;9.45;;;;;;;;;;5068307;28;20048;-70
2023/01/25 08:05:25;;;;;;;10.23;9.27;;;;;;;;;;5069391;28;20052;-70
2023/01/25 08:07:51;;;;;;;9.85;8.77;;;;;;;;;;5070611;28;20447;-71
2023/01/25 08:10:18;;;;;;;12.77;10.10;;;;;;;;;;5068441;28;20041;-70
2023/01/25 08:12:45;;;;;;;10.07;8.75;;;;;;;;;;5068377;28;20469;-68
2023/01/25 08:15:11;;;;;;;10.15;9.20;;;;;;;;;;5047076;28;20663;-70
2023/01/25 08:17:37;;;;;;;12.77;5.25;;;;;;;;;;5048303;28;20032;-71
2023/01/25 08:20:04;;;;;;;6.88;6.35;;;;;;;;;;5049758;28;20142;-70
2023/01/25 08:22:31;;;;;;;8.48;7.55;;;;;;;;;;5066760;28;20503;-71
2023/01/25 08:24:59;;;;;;;6.95;6.35;;;;;;;;;;5050305;28;20036;-71
2023/01/25 08:27:27;;;;;;;4.10;3.90;;;;;;;;;;5068016;28;20612;-71
2023/01/25 08:29:53;;;;;;;6.50;5.25;;;;;;;;;;5068352;28;20032;-70
2023/01/25 08:32:19;;;;;;;7.55;6.85;;;;;;;;;;5067757;28;20036;-69
2023/01/25 08:34:46;;;;;;;9.05;7.72;;;;;;;;;;5050032;28;20032;-70
2023/01/25 08:37:12;;;;;;;7.20;6.57;;;;;;;;;;5067942;28;20036;-69
2023/01/25 08:39:38;;;;;;;8.63;7.22;;;;;;;;;;5067910;28;20047;-70
2023/01/25 08:42:05;;;;;;;8.77;7.90;;;;;;;;;;5049948;28;20709;-70
2023/01/25 08:44:31;;;;;;;4.10;3.75;;;;;;;;;;5065615;28;20055;-72
2023/01/25 08:46:57;;;;;;;6.63;5.85;;;;;;;;;;5067351;28;20036;-69
2023/01/25 08:49:23;;;;;;;7.60;6.90;;;;;;;;;;5049476;28;20391;-70
2023/01/25 08:51:49;;;;;;;6.22;5.70;;;;;;;;;;5049839;28;20036;-70
2023/01/25 08:54:15;;;;;;;7.03;6.25;;;;;;;;;;5049436;28;20039;-69
2023/01/25 08:56:41;;;;;;;7.35;6.65;;;;;;;;;;5067652;28;20032;-71
2023/01/25 08:59:11;;;;;;;5.82;5.38;;;;;;;;;;5067920;28;20043;-76
2023/01/25 09:01:36;;;;;;;5.95;5.10;;;;;;;;;;5065933;28;20530;-72
2023/01/25 09:04:02;;;;;;;4.57;4.20;;;;;;;;;;5028821;28;20056;-71
2023/01/25 09:06:29;;;;;;;5.13;4.72;;;;;;;;;;5049841;28;20525;-70
2023/01/25 09:08:54;;;;;;;6.55;6.05;;;;;;;;;;5048302;28;20115;-70
2023/01/25 09:11:21;;;;;;;8.23;7.38;;;;;;;;;;5066018;28;20123;-70
2023/01/25 09:13:47;;;;;;;9.32;8.48;;;;;;;;;;5067134;28;20402;-70
2023/01/25 09:16:14;;;;;;;8.75;7.95;;;;;;;;;;5032034;28;20068;-71
2023/01/25 09:18:41;;;;;;;14.10;10.13;;;;;;;;;;5065869;28;20578;-71
2023/01/25 09:21:11;;;;;;;11.73;9.85;;;;;;;;;;5067031;28;20025;-70
2023/01/25 09:23:37;;;;;;;10.20;9.20;;;;;;;;;;5066311;28;20037;-69
2023/01/25 09:26:03;;;;;;;4.32;3.92;;;;;;;;;;5066867;28;20138;-69
2023/01/25 09:28:30;;;;;;;8.88;8.07;;;;;;;;;;5066682;28;20455;-71
2023/01/25 09:30:56;;;;;;;8.43;7.18;;;;;;;;;;5048009;28;20028;-71
2023/01/25 09:33:33;;;;;;;5.75;5.25;;;;;;;;;;5034657;28;20037;-70
2023/01/25 09:35:59;;;;;;;8.25;7.45;;;;;;;;;;5049354;28;20035;-70
2023/01/25 09:38:25;;;;;;;5.47;5.07;;;;;;;;;;5067634;28;20068;-71
2023/01/25 09:41:03;;;;;;;10.80;5.30;;;;;;;;;;5066931;28;20069;-71
2023/01/25 09:43:35;;;;;;;5.03;4.63;;;;;;;;;;5046600;28;20044;-71
2023/01/25 09:46:01;;;;;;;6.45;5.95;;;;;;;;;;5047532;28;20032;-71
2023/01/25 09:48:30;;;;;;;5.63;5.13;;;;;;;;;;5049481;28;20113;-71
2023/01/25 09:51:02;;;;;;;8.68;7.78;;;;;;;;;;5065627;28;20123;-70
2023/01/25 09:53:29;;;;;;;6.95;6.32;;;;;;;;;;5067298;28;20036;-71
2023/01/25 09:56:00;;;;;;;7.13;6.35;;;;;;;;;;5067210;28;20028;-70
2023/01/25 09:58:33;;;;;;;8.88;8.02;;;;;;;;;;5067348;28;20040;-69
2023/01/25 10:01:23;;;;;;;9.70;8.38;;;;;;;;;;5046796;28;20054;-71
2023/01/25 10:03:57;;;;;;;8.52;6.43;;;;;;;;;;5058849;28;20693;-70
2023/01/25 10:06:34;;;;;;;9.70;6.05;;;;;;;;;;5049125;28;20657;-71
2023/01/25 10:09:20;;;;;;;6.22;5.63;;;;;;;;;;5032708;28;20616;-69
2023/01/25 10:11:47;;;;;;;10.45;8.57;;;;;;;;;;5048000;28;20742;-68
2023/01/25 10:14:14;;;;;;;7.03;6.43;;;;;;;;;;5067342;28;20495;-69
2023/01/25 10:16:43;;;;;;;6.03;5.53;;;;;;;;;;5048787;28;20094;-69
2023/01/25 10:19:13;;;;;;;4.50;4.10;;;;;;;;;;5048346;28;20025;-70
2023/01/25 10:21:40;;;;;;;10.18;9.15;;;;;;;;;;5049444;28;20123;-69
2023/01/25 10:24:09;;;;;;;11.82;10.48;;;;;;;;;;5067133;28;20422;-70
2023/01/25 10:26:35;;;;;;;12.27;9.05;;;;;;;;;;5066262;28;20047;-70
2023/01/25 10:29:04;;;;;;;17.95;11.68;;;;;;;;;;5067216;28;20036;-69
2023/01/25 10:31:53;;;;;;;14.25;10.20;;;;;;;;;;5067080;28;20119;-70
2023/01/25 10:34:28;;;;;;;15.15;8.50;;;;;;;;;;5066346;28;20028;-70
2023/01/25 10:37:01;;;;;;;8.30;7.38;;;;;;;;;;5049088;28;20036;-71
2023/01/25 10:39:27;;;;;;;9.65;8.13;;;;;;;;;;5049200;28;20035;-70
2023/01/25 10:42:00;;;;;;;9.55;6.15;;;;;;;;;;5066793;28;20126;-70
2023/01/25 10:44:27;;;;;;;7.15;5.90;;;;;;;;;;5045633;28;20418;-70
2023/01/25 10:46:56;;;;;;;11.70;8.30;;;;;;;;;;5061244;28;20666;-71
2023/01/25 10:49:38;;;;;;;10.98;8.13;;;;;;;;;;5064483;28;20036;-70
2023/01/25 10:52:37;;;;;;;10.30;7.53;;;;;;;;;;5048351;28;20020;-69
2023/01/25 10:55:11;;;;;;;10.27;8.10;;;;;;;;;;5050387;28;20063;-70
2023/01/25 10:57:37;;;;;;;8.88;7.25;;;;;;;;;;5049049;28;20028;-71
2023/01/25 11:00:09;;;;;;;11.88;9.65;;;;;;;;;;5066542;28;20110;-70
2023/01/25 11:02:43;;;;;;;8.40;5.97;;;;;;;;;;5065544;28;20477;-70
2023/01/25 11:05:18;;;;;;;14.77;8.82;;;;;;;;;;5048745;28;20047;-70
2023/01/25 11:07:44;;;;;;;9.68;7.72;;;;;;;;;;5048959;28;20028;-70
2023/01/25 11:10:29;;;;;;;7.97;7.15;;;;;;;;;;5052716;28;20478;-70
2023/01/25 11:13:14;;;;;;;11.88;7.53;;;;;;;;;;5070449;28;20089;-70
2023/01/25 11:15:41;;;;;;;11.45;7.38;;;;;;;;;;5070286;28;20116;-70
2023/01/25 11:18:11;;;;;;;6.53;5.75;;;;;;;;;;5070471;28;20031;-70
2023/01/25 11:20:37;;;;;;;16.45;8.48;;;;;;;;;;5052523;28;20052;-70
2023/01/25 11:23:08;;;;;;;12.13;9.13;;;;;;;;;;5052222;28;20033;-69
2023/01/25 11:25:34;;;;;;;;;;;;;;;;;;5052951;28;20160;-70
2023/01/25 11:28:16;;;;;;;13.40;9.45;;;;;;;;;;5069976;28;20306;-69
2023/01/25 11:30:42;;;;;;;23.10;10.98;;;;;;;;;;5069001;28;20064;-71
2023/01/25 11:33:10;;;;;;;12.13;9.90;;;;;;;;;;5051741;28;20071;-70
2023/01/25 11:35:36;;;;;;;8.43;7.63;;;;;;;;;;5051732;28;20105;-70
2023/01/25 11:38:01;;;;;;;8.80;8.00;;;;;;;;;;5068309;28;20127;-71
2023/01/25 11:40:27;;;;;;;14.13;9.60;;;;;;;;;;5069479;28;20131;-70
2023/01/25 11:43:11;;;;;;;9.13;8.10;;;;;;;;;;5067347;28;20464;-69
2023/01/25 11:45:37;;;;;;;6.90;6.20;;;;;;;;;;5035386;28;20044;-69
2023/01/25 11:48:06;;;;;;;9.60;8.68;;;;;;;;;;5069750;28;20081;-70
2023/01/25 11:50:41;;;;;;;7.60;6.90;;;;;;;;;;5069353;28;20032;-69
2023/01/25 11:53:16;;;;;;;8.48;7.50;;;;;;;;;;5048749;28;20442;-70
2023/01/25 11:55:44;;;;;;;16.40;11.05;;;;;;;;;;5069841;28;20039;-70
2023/01/25 11:58:29;;;;;;;12.35;9.30;;;;;;;;;;5069353;28;20036;-71
2023/01/25 12:00:58;;;;;;;7.22;5.85;;;;;;;;;;5049488;28;20045;-70
2023/01/25 12:03:35;;;;;;;10.18;7.95;;;;;;;;;;5049822;28;20105;-69
2023/01/25 12:06:03;;;;;;;7.78;5.57;;;;;;;;;;5069521;28;20033;-70
2023/01/25 12:08:39;;;;;;;6.07;5.60;;;;;;;;;;5069027;28;20032;-72
2023/01/25 12:11:05;;;;;;;13.55;9.52;;;;;;;;;;5069133;28;20036;-70
2023/01/25 12:13:39;;;;;;;10.52;8.52;;;;;;;;;;5069358;28;20040;-70
2023/01/25 12:16:29;;;;;;;8.73;7.57;;;;;;;;;;5068416;28;20028;-70
2023/01/25 12:19:04;;;;;;;11.73;7.10;;;;;;;;;;5038808;28;20308;-70
2023/01/25 12:21:39;;;;;;;4.35;3.95;;;;;;;;;;5068909;28;20043;-69
2023/01/25 12:24:24;;;;;;;8.95;6.60;;;;;;;;;;5066054;28;20125;-71
2023/01/25 12:26:53;;;;;;;9.85;6.93;;;;;;;;;;5068627;28;20039;-70
2023/01/25 12:29:28;;;;;;;9.32;7.97;;;;;;;;;;5068898;28;20048;-70
2023/01/25 12:32:00;;;;;;;6.40;5.25;;;;;;;;;;5068871;28;20052;-71
2023/01/25 12:34:25;;;;;;;;;;;;;;;;;;5027166;28;20061;-70
2023/01/25 12:36:51;;;;;;;16.33;9.90;;;;;;;;;;5068643;28;19916;-71
2023/01/25 12:39:20;;;;;;;7.85;7.15;;;;;;;;;;5049913;28;20048;-70
2023/01/25 12:41:53;;;;;;;11.10;8.38;;;;;;;;;;5048682;28;20031;-69
2023/01/25 12:44:19;;;;;;;9.88;8.93;;;;;;;;;;5064798;28;20491;-69
2023/01/25 12:46:54;;;;;;;10.50;8.80;;;;;;;;;;5050563;28;20029;-70
2023/01/25 12:49:40;;;;;;;10.73;8.15;;;;;;;;;;5068437;28;20078;-70
2023/01/25 12:52:13;;;;;;;10.50;8.00;;;;;;;;;;5068131;28;20040;-69
2023/01/25 12:54:39;;;;;;;10.05;7.57;;;;;;;;;;5049791;28;20068;-70
2023/01/25 12:57:08;;;;;;;15.18;6.57;;;;;;;;;;5068576;28;20040;-70
2023/01/25 12:59:34;;;;;;;11.00;7.65;;;;;;;;;;5053067;28;20511;-74
2023/01/25 13:02:26;;;;;;;10.35;8.65;;;;;;;;;;5074245;28;20042;-73
2023/01/25 13:05:01;;;;;;;5.82;5.35;;;;;;;;;;5033090;28;20051;-76
2023/01/25 13:07:53;;;;;;;11.50;8.23;;;;;;;;;;5070265;28;20040;-81
2023/01/25 13:10:39;;;;;;;7.65;6.95;;;;;;;;;;5058059;28;20024;-75
2023/01/25 13:13:21;;;;;;;11.48;8.65;;;;;;;;;;5071394;28;20521;-85
2023/01/25 13:15:47;;;;;;;9.65;7.00;;;;;;;;;;5079904;28;20035;-85
2023/01/25 13:18:32;;;;;;;10.88;8.52;;;;;;;;;;5066556;28;20441;-85
2023/01/25 13:20:59;;;;;;;10.15;8.52;;;;;;;;;;5042536;28;20033;-73
2023/01/25 13:23:31;;;;;;;11.38;9.95;;;;;;;;;;5067751;28;20548;-72
2023/01/25 13:26:16;;;;;;;10.90;7.93;;;;;;;;;;5064686;28;20071;-71
2023/01/25 13:28:44;;;;;;;8.85;6.85;;;;;;;;;;5049373;28;20036;-71
2023/01/25 13:31:10;;;;;;;6.25;5.65;;;;;;;;;;5060853;28;20029;-72
2023/01/25 13:33:36;;;;;;;9.23;8.27;;;;;;;;;;5049036;28;20028;-71
2023/01/25 13:36:21;;;;;;;15.10;8.38;;;;;;;;;;5067396;28;20063;-71
2023/01/25 13:38:47;;;;;;;7.47;6.72;;;;;;;;;;5039950;28;20026;-71
2023/01/25 13:41:15;;;;;;;11.50;7.57;;;;;;;;;;5065274;28;20559;-72
2023/01/25 13:43:42;;;;;;;10.07;9.18;;;;;;;;;;5066605;28;20465;-71
2023/01/25 13:46:09;;;;;;;14.85;10.85;;;;;;;;;;5049326;28;20028;-72
2023/01/25 13:48:35;;;;;;;20.60;9.68;;;;;;;;;;5049038;28;20032;-72
2023/01/25 13:51:03;;;;;;;10.05;8.57;;;;;;;;;;5049152;28;20040;-71
2023/01/25 13:53:32;;;;;;;15.25;11.05;;;;;;;;;;5048871;28;20067;-71
2023/01/25 13:55:57;;;;;;;14.43;10.45;;;;;;;;;;5066749;28;20387;-71
2023/01/25 13:58:28;;;;;;;9.45;8.48;;;;;;;;;;5066764;28;20036;-72
2023/01/25 14:00:54;;;;;;;12.65;9.38;;;;;;;;;;5031608;28;20036;-72
2023/01/25 14:03:29;;;;;;;8.95;7.65;;;;;;;;;;5067250;28;20045;-73
2023/01/25 14:05:56;;;;;;;15.40;9.98;;;;;;;;;;5065920;28;20131;-72
2023/01/25 14:08:22;;;;;;;17.80;9.88;;;;;;;;;;5047546;28;20033;-72
2023/01/25 14:10:49;;;;;;;14.52;11.68;;;;;;;;;;5048081;28;20031;-72
2023/01/25 14:13:15;;;;;;;13.85;9.23;;;;;;;;;;5065569;28;20029;-71
2023/01/25 14:15:51;;;;;;;15.02;10.50;;;;;;;;;;5066119;28;20032;-71
2023/01/25 14:18:20;;;;;;;18.33;10.63;;;;;;;;;;5046137;28;20406;-71
2023/01/25 14:20:48;;;;;;;10.20;7.97;;;;;;;;;;5065584;28;20109;-71
2023/01/25 14:23:19;;;;;;;10.43;8.18;;;;;;;;;;5066202;28;20028;-74
2023/01/25 14:25:45;;;;;;;18.95;12.65;;;;;;;;;;5045863;28;20109;-73
2023/01/25 14:28:11;;;;;;;14.43;10.52;;;;;;;;;;5065299;28;20033;-74
2023/01/25 14:30:38;;;;;;;12.43;9.13;;;;;;;;;;5048628;28;20040;-74
2023/01/25 14:33:22;;;;;;;13.93;8.82;;;;;;;;;;5062226;28;20024;-74
2023/01/25 14:35:49;;;;;;;12.77;8.25;;;;;;;;;;5065633;28;20033;-74
2023/01/25 14:38:22;;;;;;;10.05;8.35;;;;;;;;;;5046682;28;20544;-73
2023/01/25 14:40:48;;;;;;;9.65;7.82;;;;;;;;;;5065824;28;20135;-73
2023/01/25 14:43:15;;;;;;;12.55;11.07;;;;;;;;;;5069329;28;20032;-74